sensor_id;sensor_type;location;lat;lon;timestamp;P1;durP1;ratioP1;P2;durP2;ratioP2
19038;SDS011;9652;49.014;12.052;2022-12-10T00:01:40;16.00;;;10.33;;
19038;SDS011;9652;49.014;12.052;2022-12-10T00:04:09;15.40;;;10.43;;
19038;SDS011;9652;49.014;12.052;2022-12-10T00:06:37;14.73;;;10.97;;
19038;SDS011;9652;49.014;12.052;2022-12-10T00:09:06;15.70;;;10.10;;
19038;SDS011;9652;49.014;12.052;2022-12-10T00:11:37;16.43;;;10.90;;
19038;SDS011;9652;49.014;12.052;2022-12-10T00:14:07;18.67;;;11.47;;
19038;SDS011;9652;49.014;12.052;2022-12-10T00:16:35;17.07;;;10.80;;
19038;SDS011;9652;49.014;12.052;2022-12-10T00:19:03;18.40;;;10.53;;
19038;SDS011;9652;49.014;12.052;2022-12-10T00:21:32;16.87;;;10.67;;
19038;SDS011;9652;49.014;12.052;2022-12-10T00:24:00;14.27;;;9.00;;
19038;SDS011;9652;49.014;12.052;2022-12-10T00:26:30;17.53;;;10.53;;
19038;SDS011;9652;49.014;12.052;2022-12-10T00:29:02;15.70;;;9.73;;
19038;SDS011;9652;49.014;12.052;2022-12-10T00:31:33;14.27;;;9.83;;
19038;SDS011;9652;49.014;12.052;2022-12-10T00:34:03;13.83;;;9.77;;
19038;SDS011;9652;49.014;12.052;2022-12-10T00:36:34;13.53;;;9.13;;
19038;SDS011;9652;49.014;12.052;2022-12-10T00:39:05;13.67;;;9.33;;
19038;SDS011;9652;49.014;12.052;2022-12-10T00:41:32;17.20;;;11.03;;
19038;SDS011;9652;49.014;12.052;2022-12-10T00:44:01;20.43;;;10.73;;
19038;SDS011;9652;49.014;12.052;2022-12-10T00:46:29;14.60;;;10.27;;
19038;SDS011;9652;49.014;12.052;2022-12-10T00:48:57;16.17;;;10.40;;
19038;SDS011;9652;49.014;12.052;2022-12-10T00:51:24;14.47;;;9.77;;
19038;SDS011;9652;49.014;12.052;2022-12-10T00:53:53;15.43;;;10.20;;
19038;SDS011;9652;49.014;12.052;2022-12-10T00:56:24;16.83;;;9.57;;
19038;SDS011;9652;49.014;12.052;2022-12-10T00:58:53;13.90;;;9.33;;
19038;SDS011;9652;49.014;12.052;2022-12-10T01:01:24;15.03;;;11.00;;
19038;SDS011;9652;49.014;12.052;2022-12-10T01:03:54;16.57;;;10.30;;
19038;SDS011;9652;49.014;12.052;2022-12-10T01:06:25;14.10;;;9.87;;
19038;SDS011;9652;49.014;12.052;2022-12-10T01:08:55;17.47;;;10.27;;
19038;SDS011;9652;49.014;12.052;2022-12-10T01:11:25;15.37;;;10.30;;
19038;SDS011;9652;49.014;12.052;2022-12-10T01:13:55;15.27;;;9.93;;
19038;SDS011;9652;49.014;12.052;2022-12-10T01:16:25;14.83;;;10.10;;
19038;SDS011;9652;49.014;12.052;2022-12-10T01:18:53;17.97;;;10.70;;
19038;SDS011;9652;49.014;12.052;2022-12-10T01:21:22;17.27;;;11.03;;
19038;SDS011;9652;49.014;12.052;2022-12-10T01:23:51;17.50;;;10.97;;
19038;SDS011;9652;49.014;12.052;2022-12-10T01:26:20;16.30;;;11.33;;
19038;SDS011;9652;49.014;12.052;2022-12-10T01:28:50;15.13;;;10.53;;
19038;SDS011;9652;49.014;12.052;2022-12-10T01:31:20;16.77;;;10.87;;
19038;SDS011;9652;49.014;12.052;2022-12-10T01:33:50;17.40;;;10.90;;
19038;SDS011;9652;49.014;12.052;2022-12-10T01:36:18;16.87;;;10.87;;
19038;SDS011;9652;49.014;12.052;2022-12-10T01:38:47;16.20;;;10.90;;
19038;SDS011;9652;49.014;12.052;2022-12-10T01:41:16;17.50;;;11.23;;
19038;SDS011;9652;49.014;12.052;2022-12-10T01:43:49;17.70;;;11.33;;
19038;SDS011;9652;49.014;12.052;2022-12-10T01:46:20;16.77;;;10.93;;
19038;SDS011;9652;49.014;12.052;2022-12-10T01:48:50;18.27;;;11.13;;
19038;SDS011;9652;49.014;12.052;2022-12-10T01:51:18;18.97;;;11.37;;
19038;SDS011;9652;49.014;12.052;2022-12-10T01:53:45;18.77;;;11.70;;
19038;SDS011;9652;49.014;12.052;2022-12-10T01:56:15;19.37;;;11.73;;
19038;SDS011;9652;49.014;12.052;2022-12-10T01:58:44;16.70;;;11.00;;
19038;SDS011;9652;49.014;12.052;2022-12-10T02:01:14;18.67;;;10.77;;
19038;SDS011;9652;49.014;12.052;2022-12-10T02:03:56;17.07;;;11.27;;
19038;SDS011;9652;49.014;12.052;2022-12-10T02:06:38;15.80;;;10.80;;
19038;SDS011;9652;49.014;12.052;2022-12-10T02:09:19;16.07;;;10.77;;
19038;SDS011;9652;49.014;12.052;2022-12-10T02:12:01;18.87;;;11.53;;
19038;SDS011;9652;49.014;12.052;2022-12-10T02:14:41;18.13;;;10.70;;
19038;SDS011;9652;49.014;12.052;2022-12-10T02:17:21;17.80;;;11.57;;
19038;SDS011;9652;49.014;12.052;2022-12-10T02:20:00;18.70;;;11.30;;
19038;SDS011;9652;49.014;12.052;2022-12-10T02:22:38;15.93;;;10.37;;
19038;SDS011;9652;49.014;12.052;2022-12-10T02:25:13;20.63;;;11.47;;
19038;SDS011;9652;49.014;12.052;2022-12-10T02:27:47;18.97;;;11.87;;
19038;SDS011;9652;49.014;12.052;2022-12-10T02:30:27;17.90;;;10.97;;
19038;SDS011;9652;49.014;12.052;2022-12-10T02:32:56;19.77;;;10.70;;
19038;SDS011;9652;49.014;12.052;2022-12-10T02:35:28;16.93;;;11.13;;
19038;SDS011;9652;49.014;12.052;2022-12-10T02:38:03;21.87;;;12.10;;
19038;SDS011;9652;49.014;12.052;2022-12-10T02:40:39;17.43;;;11.03;;
19038;SDS011;9652;49.014;12.052;2022-12-10T02:43:14;18.77;;;11.87;;
19038;SDS011;9652;49.014;12.052;2022-12-10T02:45:46;19.80;;;11.93;;
19038;SDS011;9652;49.014;12.052;2022-12-10T02:48:14;21.53;;;11.93;;
19038;SDS011;9652;49.014;12.052;2022-12-10T02:50:42;21.00;;;12.33;;
19038;SDS011;9652;49.014;12.052;2022-12-10T02:53:10;18.93;;;11.90;;
19038;SDS011;9652;49.014;12.052;2022-12-10T02:55:40;18.83;;;12.07;;
19038;SDS011;9652;49.014;12.052;2022-12-10T02:58:23;19.17;;;12.27;;
19038;SDS011;9652;49.014;12.052;2022-12-10T03:01:05;18.77;;;11.07;;
19038;SDS011;9652;49.014;12.052;2022-12-10T03:03:42;18.73;;;11.47;;
19038;SDS011;9652;49.014;12.052;2022-12-10T03:06:17;20.13;;;11.10;;
19038;SDS011;9652;49.014;12.052;2022-12-10T03:08:52;18.57;;;11.40;;
19038;SDS011;9652;49.014;12.052;2022-12-10T03:11:28;17.13;;;11.30;;
19038;SDS011;9652;49.014;12.052;2022-12-10T03:13:57;20.30;;;11.30;;
19038;SDS011;9652;49.014;12.052;2022-12-10T03:16:31;20.97;;;12.03;;
19038;SDS011;9652;49.014;12.052;2022-12-10T03:19:05;18.57;;;10.50;;
19038;SDS011;9652;49.014;12.052;2022-12-10T03:21:39;18.73;;;11.13;;
19038;SDS011;9652;49.014;12.052;2022-12-10T03:24:11;17.70;;;11.70;;
19038;SDS011;9652;49.014;12.052;2022-12-10T03:26:40;17.27;;;10.17;;
19038;SDS011;9652;49.014;12.052;2022-12-10T03:29:12;20.60;;;12.23;;
19038;SDS011;9652;49.014;12.052;2022-12-10T03:31:48;17.93;;;10.67;;
19038;SDS011;9652;49.014;12.052;2022-12-10T03:34:18;22.60;;;13.37;;
19038;SDS011;9652;49.014;12.052;2022-12-10T03:36:46;25.20;;;14.53;;
19038;SDS011;9652;49.014;12.052;2022-12-10T03:39:15;18.87;;;12.47;;
19038;SDS011;9652;49.014;12.052;2022-12-10T03:41:43;20.77;;;11.70;;
19038;SDS011;9652;49.014;12.052;2022-12-10T03:44:11;17.90;;;11.40;;
19038;SDS011;9652;49.014;12.052;2022-12-10T03:46:38;20.87;;;11.87;;
19038;SDS011;9652;49.014;12.052;2022-12-10T03:49:07;19.57;;;12.10;;
19038;SDS011;9652;49.014;12.052;2022-12-10T03:51:34;21.13;;;11.83;;
19038;SDS011;9652;49.014;12.052;2022-12-10T03:54:01;21.07;;;11.67;;
19038;SDS011;9652;49.014;12.052;2022-12-10T03:56:28;20.30;;;12.93;;
19038;SDS011;9652;49.014;12.052;2022-12-10T03:58:55;21.13;;;12.23;;
19038;SDS011;9652;49.014;12.052;2022-12-10T04:01:22;23.77;;;13.60;;
19038;SDS011;9652;49.014;12.052;2022-12-10T04:03:49;20.13;;;12.40;;
19038;SDS011;9652;49.014;12.052;2022-12-10T04:06:18;21.70;;;12.57;;
19038;SDS011;9652;49.014;12.052;2022-12-10T04:08:46;24.33;;;15.00;;
19038;SDS011;9652;49.014;12.052;2022-12-10T04:11:15;27.13;;;15.97;;
19038;SDS011;9652;49.014;12.052;2022-12-10T04:13:42;27.33;;;14.63;;
19038;SDS011;9652;49.014;12.052;2022-12-10T04:16:28;26.90;;;14.83;;
19038;SDS011;9652;49.014;12.052;2022-12-10T04:18:58;27.00;;;15.27;;
19038;SDS011;9652;49.014;12.052;2022-12-10T04:21:29;24.30;;;15.13;;
19038;SDS011;9652;49.014;12.052;2022-12-10T04:24:16;26.43;;;14.80;;
19038;SDS011;9652;49.014;12.052;2022-12-10T04:27:06;23.67;;;14.23;;
19038;SDS011;9652;49.014;12.052;2022-12-10T04:29:36;23.97;;;13.93;;
19038;SDS011;9652;49.014;12.052;2022-12-10T04:32:03;31.60;;;15.70;;
19038;SDS011;9652;49.014;12.052;2022-12-10T04:34:31;27.60;;;16.00;;
19038;SDS011;9652;49.014;12.052;2022-12-10T04:37:00;27.00;;;15.87;;
19038;SDS011;9652;49.014;12.052;2022-12-10T04:39:29;25.27;;;14.73;;
19038;SDS011;9652;49.014;12.052;2022-12-10T04:41:56;22.33;;;13.43;;
19038;SDS011;9652;49.014;12.052;2022-12-10T04:44:25;23.43;;;14.07;;
19038;SDS011;9652;49.014;12.052;2022-12-10T04:46:52;23.47;;;13.47;;
19038;SDS011;9652;49.014;12.052;2022-12-10T04:49:19;22.80;;;13.33;;
19038;SDS011;9652;49.014;12.052;2022-12-10T04:51:47;26.07;;;14.57;;
19038;SDS011;9652;49.014;12.052;2022-12-10T04:54:16;24.83;;;13.03;;
19038;SDS011;9652;49.014;12.052;2022-12-10T04:56:43;25.93;;;14.40;;
19038;SDS011;9652;49.014;12.052;2022-12-10T04:59:11;22.83;;;12.97;;
19038;SDS011;9652;49.014;12.052;2022-12-10T05:01:39;24.37;;;13.87;;
19038;SDS011;9652;49.014;12.052;2022-12-10T05:04:07;26.83;;;13.40;;
19038;SDS011;9652;49.014;12.052;2022-12-10T05:06:37;22.63;;;13.20;;
19038;SDS011;9652;49.014;12.052;2022-12-10T05:09:05;23.57;;;13.30;;
19038;SDS011;9652;49.014;12.052;2022-12-10T05:11:34;24.10;;;13.90;;
19038;SDS011;9652;49.014;12.052;2022-12-10T05:14:02;23.53;;;13.57;;
19038;SDS011;9652;49.014;12.052;2022-12-10T05:16:30;22.70;;;14.00;;
19038;SDS011;9652;49.014;12.052;2022-12-10T05:18:59;21.57;;;11.97;;
19038;SDS011;9652;49.014;12.052;2022-12-10T05:21:28;22.60;;;11.47;;
19038;SDS011;9652;49.014;12.052;2022-12-10T05:24:10;20.77;;;12.07;;
19038;SDS011;9652;49.014;12.052;2022-12-10T05:26:39;21.87;;;14.00;;
19038;SDS011;9652;49.014;12.052;2022-12-10T05:29:06;25.77;;;14.13;;
19038;SDS011;9652;49.014;12.052;2022-12-10T05:31:34;21.70;;;12.93;;
19038;SDS011;9652;49.014;12.052;2022-12-10T05:34:02;25.47;;;13.33;;
19038;SDS011;9652;49.014;12.052;2022-12-10T05:36:30;25.77;;;13.47;;
19038;SDS011;9652;49.014;12.052;2022-12-10T05:38:58;23.43;;;12.37;;
19038;SDS011;9652;49.014;12.052;2022-12-10T05:41:27;21.90;;;12.93;;
19038;SDS011;9652;49.014;12.052;2022-12-10T05:43:57;25.10;;;14.10;;
19038;SDS011;9652;49.014;12.052;2022-12-10T05:46:26;25.30;;;15.03;;
19038;SDS011;9652;49.014;12.052;2022-12-10T05:48:55;25.57;;;14.40;;
19038;SDS011;9652;49.014;12.052;2022-12-10T05:51:24;25.97;;;14.03;;
19038;SDS011;9652;49.014;12.052;2022-12-10T05:53:53;32.40;;;15.63;;
19038;SDS011;9652;49.014;12.052;2022-12-10T05:56:23;29.97;;;15.93;;
19038;SDS011;9652;49.014;12.052;2022-12-10T05:58:52;27.17;;;15.57;;
19038;SDS011;9652;49.014;12.052;2022-12-10T06:01:24;31.23;;;15.63;;
19038;SDS011;9652;49.014;12.052;2022-12-10T06:03:53;30.60;;;16.17;;
19038;SDS011;9652;49.014;12.052;2022-12-10T06:06:21;31.37;;;16.20;;
19038;SDS011;9652;49.014;12.052;2022-12-10T06:08:50;31.17;;;16.07;;
19038;SDS011;9652;49.014;12.052;2022-12-10T06:11:18;26.77;;;15.03;;
19038;SDS011;9652;49.014;12.052;2022-12-10T06:13:45;31.13;;;15.90;;
19038;SDS011;9652;49.014;12.052;2022-12-10T06:16:13;29.30;;;15.20;;
19038;SDS011;9652;49.014;12.052;2022-12-10T06:18:42;30.40;;;15.97;;
19038;SDS011;9652;49.014;12.052;2022-12-10T06:21:10;29.97;;;15.33;;
19038;SDS011;9652;49.014;12.052;2022-12-10T06:23:40;27.20;;;15.73;;
19038;SDS011;9652;49.014;12.052;2022-12-10T06:26:10;29.50;;;15.27;;
19038;SDS011;9652;49.014;12.052;2022-12-10T06:28:40;26.23;;;15.20;;
19038;SDS011;9652;49.014;12.052;2022-12-10T06:31:10;32.93;;;17.33;;
19038;SDS011;9652;49.014;12.052;2022-12-10T06:33:38;32.80;;;16.00;;
19038;SDS011;9652;49.014;12.052;2022-12-10T06:36:08;36.17;;;16.60;;
19038;SDS011;9652;49.014;12.052;2022-12-10T06:38:38;30.63;;;15.87;;
19038;SDS011;9652;49.014;12.052;2022-12-10T06:41:06;32.17;;;15.50;;
19038;SDS011;9652;49.014;12.052;2022-12-10T06:43:36;32.63;;;16.23;;
19038;SDS011;9652;49.014;12.052;2022-12-10T06:46:04;29.20;;;15.17;;
19038;SDS011;9652;49.014;12.052;2022-12-10T06:48:33;27.67;;;15.03;;
19038;SDS011;9652;49.014;12.052;2022-12-10T06:51:01;30.17;;;16.70;;
19038;SDS011;9652;49.014;12.052;2022-12-10T06:53:30;30.20;;;15.70;;
19038;SDS011;9652;49.014;12.052;2022-12-10T06:55:58;26.97;;;15.90;;
19038;SDS011;9652;49.014;12.052;2022-12-10T06:58:27;23.07;;;14.87;;
19038;SDS011;9652;49.014;12.052;2022-12-10T07:01:01;25.20;;;14.10;;
19038;SDS011;9652;49.014;12.052;2022-12-10T07:03:29;25.33;;;13.80;;
19038;SDS011;9652;49.014;12.052;2022-12-10T07:05:57;29.07;;;15.67;;
19038;SDS011;9652;49.014;12.052;2022-12-10T07:08:25;27.07;;;15.73;;
19038;SDS011;9652;49.014;12.052;2022-12-10T07:10:54;25.00;;;14.10;;
19038;SDS011;9652;49.014;12.052;2022-12-10T07:13:21;22.17;;;12.93;;
19038;SDS011;9652;49.014;12.052;2022-12-10T07:15:50;25.57;;;13.83;;
19038;SDS011;9652;49.014;12.052;2022-12-10T07:18:17;29.80;;;15.03;;
19038;SDS011;9652;49.014;12.052;2022-12-10T07:20:46;27.37;;;14.70;;
19038;SDS011;9652;49.014;12.052;2022-12-10T07:23:13;23.03;;;13.53;;
19038;SDS011;9652;49.014;12.052;2022-12-10T07:25:40;27.57;;;16.27;;
19038;SDS011;9652;49.014;12.052;2022-12-10T07:28:09;32.37;;;15.57;;
19038;SDS011;9652;49.014;12.052;2022-12-10T07:30:36;28.27;;;14.67;;
19038;SDS011;9652;49.014;12.052;2022-12-10T07:33:03;29.30;;;14.70;;
19038;SDS011;9652;49.014;12.052;2022-12-10T07:35:30;24.93;;;13.53;;
19038;SDS011;9652;49.014;12.052;2022-12-10T07:37:57;25.57;;;14.03;;
19038;SDS011;9652;49.014;12.052;2022-12-10T07:40:24;25.77;;;15.20;;
19038;SDS011;9652;49.014;12.052;2022-12-10T07:42:52;29.40;;;14.23;;
19038;SDS011;9652;49.014;12.052;2022-12-10T07:45:20;25.17;;;14.13;;
19038;SDS011;9652;49.014;12.052;2022-12-10T07:47:47;28.57;;;14.67;;
19038;SDS011;9652;49.014;12.052;2022-12-10T07:50:14;32.00;;;15.07;;
19038;SDS011;9652;49.014;12.052;2022-12-10T07:52:42;30.90;;;16.07;;
19038;SDS011;9652;49.014;12.052;2022-12-10T07:55:09;33.40;;;17.20;;
19038;SDS011;9652;49.014;12.052;2022-12-10T07:57:36;31.37;;;16.23;;
19038;SDS011;9652;49.014;12.052;2022-12-10T08:00:03;26.57;;;15.37;;
19038;SDS011;9652;49.014;12.052;2022-12-10T08:02:38;29.87;;;15.93;;
19038;SDS011;9652;49.014;12.052;2022-12-10T08:05:05;29.13;;;16.07;;
19038;SDS011;9652;49.014;12.052;2022-12-10T08:07:33;29.97;;;16.03;;
19038;SDS011;9652;49.014;12.052;2022-12-10T08:10:01;28.57;;;16.00;;
19038;SDS011;9652;49.014;12.052;2022-12-10T08:12:29;26.23;;;14.77;;
19038;SDS011;9652;49.014;12.052;2022-12-10T08:14:56;26.93;;;14.27;;
19038;SDS011;9652;49.014;12.052;2022-12-10T08:17:23;30.50;;;15.47;;
19038;SDS011;9652;49.014;12.052;2022-12-10T08:19:52;26.20;;;14.17;;
19038;SDS011;9652;49.014;12.052;2022-12-10T08:22:20;28.50;;;15.00;;
19038;SDS011;9652;49.014;12.052;2022-12-10T08:24:47;28.70;;;14.57;;
19038;SDS011;9652;49.014;12.052;2022-12-10T08:27:14;29.63;;;16.33;;
19038;SDS011;9652;49.014;12.052;2022-12-10T08:29:41;30.43;;;16.67;;
19038;SDS011;9652;49.014;12.052;2022-12-10T08:32:08;26.30;;;14.63;;
19038;SDS011;9652;49.014;12.052;2022-12-10T08:34:36;28.73;;;15.13;;
19038;SDS011;9652;49.014;12.052;2022-12-10T08:37:04;26.67;;;14.77;;
19038;SDS011;9652;49.014;12.052;2022-12-10T08:39:31;28.20;;;15.57;;
19038;SDS011;9652;49.014;12.052;2022-12-10T08:41:59;27.83;;;15.03;;
19038;SDS011;9652;49.014;12.052;2022-12-10T08:44:26;29.37;;;15.17;;
19038;SDS011;9652;49.014;12.052;2022-12-10T08:46:53;26.40;;;13.97;;
19038;SDS011;9652;49.014;12.052;2022-12-10T08:49:20;26.07;;;14.67;;
19038;SDS011;9652;49.014;12.052;2022-12-10T08:51:47;30.90;;;16.23;;
19038;SDS011;9652;49.014;12.052;2022-12-10T08:54:16;33.20;;;15.50;;
19038;SDS011;9652;49.014;12.052;2022-12-10T08:56:43;24.90;;;14.13;;
19038;SDS011;9652;49.014;12.052;2022-12-10T08:59:10;25.40;;;15.00;;
19038;SDS011;9652;49.014;12.052;2022-12-10T09:01:38;26.43;;;14.73;;
19038;SDS011;9652;49.014;12.052;2022-12-10T09:04:05;28.90;;;15.03;;
19038;SDS011;9652;49.014;12.052;2022-12-10T09:06:33;25.23;;;15.43;;
19038;SDS011;9652;49.014;12.052;2022-12-10T09:09:00;30.30;;;14.67;;
19038;SDS011;9652;49.014;12.052;2022-12-10T09:11:30;33.13;;;17.10;;
19038;SDS011;9652;49.014;12.052;2022-12-10T09:13:59;29.57;;;16.03;;
19038;SDS011;9652;49.014;12.052;2022-12-10T09:16:28;32.23;;;15.83;;
19038;SDS011;9652;49.014;12.052;2022-12-10T09:18:57;25.33;;;14.73;;
19038;SDS011;9652;49.014;12.052;2022-12-10T09:21:24;32.90;;;16.73;;
19038;SDS011;9652;49.014;12.052;2022-12-10T09:23:54;28.80;;;15.90;;
19038;SDS011;9652;49.014;12.052;2022-12-10T09:26:22;29.87;;;15.43;;
19038;SDS011;9652;49.014;12.052;2022-12-10T09:28:51;28.43;;;15.67;;
19038;SDS011;9652;49.014;12.052;2022-12-10T09:31:19;28.97;;;15.97;;
19038;SDS011;9652;49.014;12.052;2022-12-10T09:33:48;28.77;;;16.07;;
19038;SDS011;9652;49.014;12.052;2022-12-10T09:36:17;29.00;;;15.10;;
19038;SDS011;9652;49.014;12.052;2022-12-10T09:38:45;30.63;;;15.07;;
19038;SDS011;9652;49.014;12.052;2022-12-10T09:41:22;27.67;;;14.73;;
19038;SDS011;9652;49.014;12.052;2022-12-10T09:44:30;26.73;;;14.57;;
19038;SDS011;9652;49.014;12.052;2022-12-10T09:47:09;24.63;;;13.80;;
19038;SDS011;9652;49.014;12.052;2022-12-10T09:49:44;25.13;;;14.73;;
19038;SDS011;9652;49.014;12.052;2022-12-10T09:52:29;26.27;;;14.20;;
19038;SDS011;9652;49.014;12.052;2022-12-10T09:55:05;29.10;;;15.80;;
19038;SDS011;9652;49.014;12.052;2022-12-10T09:57:41;31.47;;;16.23;;
19038;SDS011;9652;49.014;12.052;2022-12-10T10:00:19;28.37;;;15.27;;
19038;SDS011;9652;49.014;12.052;2022-12-10T10:02:49;28.23;;;14.77;;
19038;SDS011;9652;49.014;12.052;2022-12-10T10:05:20;30.23;;;16.20;;
19038;SDS011;9652;49.014;12.052;2022-12-10T10:07:51;31.80;;;16.57;;
19038;SDS011;9652;49.014;12.052;2022-12-10T10:10:22;34.43;;;17.40;;
19038;SDS011;9652;49.014;12.052;2022-12-10T10:12:54;32.17;;;16.70;;
19038;SDS011;9652;49.014;12.052;2022-12-10T10:15:29;28.40;;;15.40;;
19038;SDS011;9652;49.014;12.052;2022-12-10T10:18:00;27.83;;;15.50;;
19038;SDS011;9652;49.014;12.052;2022-12-10T10:20:35;27.00;;;14.67;;
19038;SDS011;9652;49.014;12.052;2022-12-10T10:23:03;24.70;;;13.60;;
19038;SDS011;9652;49.014;12.052;2022-12-10T10:25:30;24.97;;;13.93;;
19038;SDS011;9652;49.014;12.052;2022-12-10T10:27:57;24.20;;;13.43;;
19038;SDS011;9652;49.014;12.052;2022-12-10T10:30:26;22.63;;;13.10;;
19038;SDS011;9652;49.014;12.052;2022-12-10T10:32:55;26.57;;;14.33;;
19038;SDS011;9652;49.014;12.052;2022-12-10T10:35:28;27.87;;;14.87;;
19038;SDS011;9652;49.014;12.052;2022-12-10T10:38:00;29.97;;;15.27;;
19038;SDS011;9652;49.014;12.052;2022-12-10T10:40:32;27.23;;;15.97;;
19038;SDS011;9652;49.014;12.052;2022-12-10T10:43:08;28.60;;;14.70;;
19038;SDS011;9652;49.014;12.052;2022-12-10T10:45:48;22.63;;;13.67;;
19038;SDS011;9652;49.014;12.052;2022-12-10T10:48:21;28.33;;;15.20;;
19038;SDS011;9652;49.014;12.052;2022-12-10T10:50:51;30.17;;;15.67;;
19038;SDS011;9652;49.014;12.052;2022-12-10T10:53:25;25.60;;;14.67;;
19038;SDS011;9652;49.014;12.052;2022-12-10T10:56:00;31.63;;;15.70;;
19038;SDS011;9652;49.014;12.052;2022-12-10T10:58:34;27.80;;;14.47;;
19038;SDS011;9652;49.014;12.052;2022-12-10T11:01:04;26.33;;;15.67;;
19038;SDS011;9652;49.014;12.052;2022-12-10T11:03:34;26.57;;;15.00;;
19038;SDS011;9652;49.014;12.052;2022-12-10T11:06:04;31.80;;;15.57;;
19038;SDS011;9652;49.014;12.052;2022-12-10T11:08:34;27.07;;;15.33;;
19038;SDS011;9652;49.014;12.052;2022-12-10T11:11:05;27.53;;;15.20;;
19038;SDS011;9652;49.014;12.052;2022-12-10T11:13:38;31.17;;;16.33;;
19038;SDS011;9652;49.014;12.052;2022-12-10T11:16:11;29.20;;;16.17;;
19038;SDS011;9652;49.014;12.052;2022-12-10T11:18:51;29.77;;;15.87;;
19038;SDS011;9652;49.014;12.052;2022-12-10T11:21:22;32.70;;;16.90;;
19038;SDS011;9652;49.014;12.052;2022-12-10T11:23:52;31.77;;;17.03;;
19038;SDS011;9652;49.014;12.052;2022-12-10T11:26:40;29.27;;;16.00;;
19038;SDS011;9652;49.014;12.052;2022-12-10T11:29:27;24.40;;;14.57;;
19038;SDS011;9652;49.014;12.052;2022-12-10T11:32:20;22.03;;;13.27;;
19038;SDS011;9652;49.014;12.052;2022-12-10T11:35:11;26.33;;;14.10;;
19038;SDS011;9652;49.014;12.052;2022-12-10T11:37:47;28.77;;;16.07;;
19038;SDS011;9652;49.014;12.052;2022-12-10T11:40:32;25.27;;;12.77;;
19038;SDS011;9652;49.014;12.052;2022-12-10T11:43:16;22.60;;;13.50;;
19038;SDS011;9652;49.014;12.052;2022-12-10T11:46:05;26.60;;;14.07;;
19038;SDS011;9652;49.014;12.052;2022-12-10T11:48:55;25.83;;;14.73;;
19038;SDS011;9652;49.014;12.052;2022-12-10T11:51:40;23.63;;;15.10;;
19038;SDS011;9652;49.014;12.052;2022-12-10T11:54:23;24.90;;;13.80;;
19038;SDS011;9652;49.014;12.052;2022-12-10T11:57:20;21.33;;;12.97;;
19038;SDS011;9652;49.014;12.052;2022-12-10T12:00:02;21.03;;;13.03;;
19038;SDS011;9652;49.014;12.052;2022-12-10T12:02:55;20.80;;;12.83;;
19038;SDS011;9652;49.014;12.052;2022-12-10T12:05:48;20.97;;;12.50;;
19038;SDS011;9652;49.014;12.052;2022-12-10T12:08:50;22.80;;;13.13;;
19038;SDS011;9652;49.014;12.052;2022-12-10T12:11:30;26.43;;;13.50;;
19038;SDS011;9652;49.014;12.052;2022-12-10T12:14:19;21.17;;;12.43;;
19038;SDS011;9652;49.014;12.052;2022-12-10T12:16:57;25.17;;;13.90;;
19038;SDS011;9652;49.014;12.052;2022-12-10T12:19:34;22.63;;;13.10;;
19038;SDS011;9652;49.014;12.052;2022-12-10T12:22:13;25.33;;;13.30;;
19038;SDS011;9652;49.014;12.052;2022-12-10T12:24:47;23.57;;;12.77;;
19038;SDS011;9652;49.014;12.052;2022-12-10T12:27:22;22.60;;;13.80;;
19038;SDS011;9652;49.014;12.052;2022-12-10T12:29:58;24.93;;;14.03;;
19038;SDS011;9652;49.014;12.052;2022-12-10T12:32:32;25.93;;;14.30;;
19038;SDS011;9652;49.014;12.052;2022-12-10T12:35:13;23.43;;;14.00;;
19038;SDS011;9652;49.014;12.052;2022-12-10T12:37:47;22.57;;;13.33;;
19038;SDS011;9652;49.014;12.052;2022-12-10T12:40:25;22.13;;;13.47;;
19038;SDS011;9652;49.014;12.052;2022-12-10T12:42:57;23.23;;;14.27;;
19038;SDS011;9652;49.014;12.052;2022-12-10T12:45:30;24.40;;;14.17;;
19038;SDS011;9652;49.014;12.052;2022-12-10T12:48:06;28.07;;;16.43;;
19038;SDS011;9652;49.014;12.052;2022-12-10T12:50:45;29.10;;;15.77;;
19038;SDS011;9652;49.014;12.052;2022-12-10T12:53:19;26.43;;;15.33;;
19038;SDS011;9652;49.014;12.052;2022-12-10T12:55:53;25.70;;;14.60;;
19038;SDS011;9652;49.014;12.052;2022-12-10T12:58:37;25.70;;;14.27;;
19038;SDS011;9652;49.014;12.052;2022-12-10T13:01:20;21.27;;;13.00;;
19038;SDS011;9652;49.014;12.052;2022-12-10T13:03:56;24.60;;;13.60;;
19038;SDS011;9652;49.014;12.052;2022-12-10T13:06:25;25.40;;;14.13;;
19038;SDS011;9652;49.014;12.052;2022-12-10T13:09:02;27.67;;;16.03;;
19038;SDS011;9652;49.014;12.052;2022-12-10T13:14:55;21.50;;;13.30;;
19038;SDS011;9652;49.014;12.052;2022-12-10T13:17:39;19.57;;;12.00;;
19038;SDS011;9652;49.014;12.052;2022-12-10T13:20:50;19.37;;;12.27;;
19038;SDS011;9652;49.014;12.052;2022-12-10T13:24:07;20.10;;;12.57;;
19038;SDS011;9652;49.014;12.052;2022-12-10T13:26:59;20.00;;;11.97;;
19038;SDS011;9652;49.014;12.052;2022-12-10T13:29:43;18.40;;;11.27;;
19038;SDS011;9652;49.014;12.052;2022-12-10T13:32:18;18.80;;;11.33;;
19038;SDS011;9652;49.014;12.052;2022-12-10T13:34:54;21.43;;;12.17;;
19038;SDS011;9652;49.014;12.052;2022-12-10T13:37:54;17.70;;;10.23;;
19038;SDS011;9652;49.014;12.052;2022-12-10T13:40:36;18.67;;;11.30;;
19038;SDS011;9652;49.014;12.052;2022-12-10T13:43:27;17.83;;;11.03;;
19038;SDS011;9652;49.014;12.052;2022-12-10T13:46:21;17.43;;;11.43;;
19038;SDS011;9652;49.014;12.052;2022-12-10T13:48:57;21.53;;;12.50;;
19038;SDS011;9652;49.014;12.052;2022-12-10T13:51:32;24.23;;;13.80;;
19038;SDS011;9652;49.014;12.052;2022-12-10T13:54:24;19.33;;;11.93;;
19038;SDS011;9652;49.014;12.052;2022-12-10T13:57:32;21.63;;;12.27;;
19038;SDS011;9652;49.014;12.052;2022-12-10T14:00:35;19.27;;;11.17;;
19038;SDS011;9652;49.014;12.052;2022-12-10T14:06:22;16.90;;;11.23;;
19038;SDS011;9652;49.014;12.052;2022-12-10T14:08:57;17.47;;;10.77;;
19038;SDS011;9652;49.014;12.052;2022-12-10T14:11:30;17.43;;;11.40;;
19038;SDS011;9652;49.014;12.052;2022-12-10T14:14:04;17.67;;;11.80;;
19038;SDS011;9652;49.014;12.052;2022-12-10T14:16:37;19.07;;;11.87;;
19038;SDS011;9652;49.014;12.052;2022-12-10T14:19:08;19.60;;;12.80;;
19038;SDS011;9652;49.014;12.052;2022-12-10T14:21:41;21.83;;;12.43;;
19038;SDS011;9652;49.014;12.052;2022-12-10T14:24:30;19.80;;;12.17;;
19038;SDS011;9652;49.014;12.052;2022-12-10T14:27:03;20.97;;;12.17;;
19038;SDS011;9652;49.014;12.052;2022-12-10T14:29:42;23.17;;;12.50;;
19038;SDS011;9652;49.014;12.052;2022-12-10T14:32:12;20.47;;;12.00;;
19038;SDS011;9652;49.014;12.052;2022-12-10T14:34:42;17.30;;;10.80;;
19038;SDS011;9652;49.014;12.052;2022-12-10T14:37:15;18.07;;;11.17;;
19038;SDS011;9652;49.014;12.052;2022-12-10T14:39:47;17.80;;;10.67;;
19038;SDS011;9652;49.014;12.052;2022-12-10T14:42:15;18.53;;;11.53;;
19038;SDS011;9652;49.014;12.052;2022-12-10T14:44:43;15.63;;;11.00;;
19038;SDS011;9652;49.014;12.052;2022-12-10T14:47:16;16.67;;;10.90;;
19038;SDS011;9652;49.014;12.052;2022-12-10T14:49:46;19.03;;;11.10;;
19038;SDS011;9652;49.014;12.052;2022-12-10T14:52:19;15.57;;;9.90;;
19038;SDS011;9652;49.014;12.052;2022-12-10T14:54:50;19.33;;;11.27;;
19038;SDS011;9652;49.014;12.052;2022-12-10T14:57:20;17.93;;;11.53;;
19038;SDS011;9652;49.014;12.052;2022-12-10T14:59:55;20.47;;;11.13;;